sensor_id;sensor_type;location;lat;lon;timestamp;pressure;altitude;pressure_sealevel;temperature;humidity
16525;BME280;8375;33.594;-117.718;2022-09-06T00:01:10;99365.75;;;36.87;28.03
16525;BME280;8375;33.594;-117.718;2022-09-06T00:03:40;99366.91;;;36.46;28.75
16525;BME280;8375;33.594;-117.718;2022-09-06T00:06:10;99373.59;;;36.48;29.86
16525;BME280;8375;33.594;-117.718;2022-09-06T00:08:39;99368.88;;;36.54;29.40
16525;BME280;8375;33.594;-117.718;2022-09-06T00:11:08;99371.13;;;36.69;28.98
16525;BME280;8375;33.594;-117.718;2022-09-06T00:13:37;99363.84;;;36.70;28.77
16525;BME280;8375;33.594;-117.718;2022-09-06T00:16:09;99366.84;;;36.68;29.07
16525;BME280;8375;33.594;-117.718;2022-09-06T00:18:38;99369.88;;;36.67;29.15
16525;BME280;8375;33.594;-117.718;2022-09-06T00:21:14;99367.16;;;36.76;28.84
16525;BME280;8375;33.594;-117.718;2022-09-06T00:23:43;99382.72;;;36.61;28.99
16525;BME280;8375;33.594;-117.718;2022-09-06T00:26:12;99381.03;;;36.42;29.01
16525;BME280;8375;33.594;-117.718;2022-09-06T00:28:41;99375.81;;;36.46;30.34
16525;BME280;8375;33.594;-117.718;2022-09-06T00:31:13;99373.13;;;36.46;30.35
16525;BME280;8375;33.594;-117.718;2022-09-06T00:33:43;99371.56;;;36.54;29.53
16525;BME280;8375;33.594;-117.718;2022-09-06T00:36:13;99373.13;;;36.46;29.30
16525;BME280;8375;33.594;-117.718;2022-09-06T00:38:42;99383.72;;;36.34;29.19
16525;BME280;8375;33.594;-117.718;2022-09-06T00:41:12;99380.19;;;36.33;30.00
16525;BME280;8375;33.594;-117.718;2022-09-06T00:43:41;99386.28;;;36.39;30.05
16525;BME280;8375;33.594;-117.718;2022-09-06T00:46:14;99384.06;;;36.41;30.25
16525;BME280;8375;33.594;-117.718;2022-09-06T00:48:44;99389.13;;;36.34;29.51
16525;BME280;8375;33.594;-117.718;2022-09-06T00:51:15;99381.84;;;36.11;30.18
16525;BME280;8375;33.594;-117.718;2022-09-06T00:53:44;99379.47;;;35.87;30.06
16525;BME280;8375;33.594;-117.718;2022-09-06T00:56:13;99385.00;;;35.82;30.19
16525;BME280;8375;33.594;-117.718;2022-09-06T00:58:42;99389.16;;;35.65;30.59
16525;BME280;8375;33.594;-117.718;2022-09-06T01:01:12;99389.09;;;35.57;30.99
16525;BME280;8375;33.594;-117.718;2022-09-06T01:03:41;99392.75;;;35.61;30.82
16525;BME280;8375;33.594;-117.718;2022-09-06T01:06:17;99395.22;;;35.48;30.99
16525;BME280;8375;33.594;-117.718;2022-09-06T01:08:58;99400.44;;;35.67;31.06
16525;BME280;8375;33.594;-117.718;2022-09-06T01:11:54;99384.75;;;35.92;33.19
16525;BME280;8375;33.594;-117.718;2022-09-06T01:14:38;99393.69;;;35.79;34.55
16525;BME280;8375;33.594;-117.718;2022-09-06T01:17:20;99391.16;;;35.82;34.93
16525;BME280;8375;33.594;-117.718;2022-09-06T01:20:19;99386.09;;;35.81;34.83
16525;BME280;8375;33.594;-117.718;2022-09-06T01:26:10;99377.69;;;35.82;34.69
16525;BME280;8375;33.594;-117.718;2022-09-06T01:28:44;99376.22;;;35.76;34.89
16525;BME280;8375;33.594;-117.718;2022-09-06T01:31:21;99380.88;;;35.62;35.57
16525;BME280;8375;33.594;-117.718;2022-09-06T01:34:06;99381.63;;;35.39;35.43
16525;BME280;8375;33.594;-117.718;2022-09-06T01:36:42;99384.69;;;35.10;36.49
16525;BME280;8375;33.594;-117.718;2022-09-06T01:39:22;99381.00;;;34.78;37.43
16525;BME280;8375;33.594;-117.718;2022-09-06T01:41:51;99385.19;;;34.56;37.87
16525;BME280;8375;33.594;-117.718;2022-09-06T01:44:22;99387.16;;;34.36;38.47
16525;BME280;8375;33.594;-117.718;2022-09-06T01:46:57;99382.22;;;34.11;38.71
16525;BME280;8375;33.594;-117.718;2022-09-06T01:49:41;99386.97;;;33.81;39.24
16525;BME280;8375;33.594;-117.718;2022-09-06T01:52:18;99380.75;;;33.66;39.20
16525;BME280;8375;33.594;-117.718;2022-09-06T01:55:03;99396.03;;;33.52;39.64
16525;BME280;8375;33.594;-117.718;2022-09-06T01:57:55;99407.38;;;33.24;40.09
16525;BME280;8375;33.594;-117.718;2022-09-06T02:00:33;99412.09;;;33.13;40.41
16525;BME280;8375;33.594;-117.718;2022-09-06T02:03:07;99416.59;;;32.99;40.58
16525;BME280;8375;33.594;-117.718;2022-09-06T02:05:43;99417.00;;;32.82;41.54
16525;BME280;8375;33.594;-117.718;2022-09-06T02:08:15;99424.72;;;32.64;41.64
16525;BME280;8375;33.594;-117.718;2022-09-06T02:10:48;99413.91;;;32.45;42.45
16525;BME280;8375;33.594;-117.718;2022-09-06T02:13:21;99418.47;;;32.44;42.69
16525;BME280;8375;33.594;-117.718;2022-09-06T02:15:55;99422.06;;;32.29;42.67
16525;BME280;8375;33.594;-117.718;2022-09-06T02:18:30;99424.59;;;32.15;42.90
16525;BME280;8375;33.594;-117.718;2022-09-06T02:21:02;99420.69;;;32.02;43.44
16525;BME280;8375;33.594;-117.718;2022-09-06T02:23:33;99424.59;;;31.81;43.88
16525;BME280;8375;33.594;-117.718;2022-09-06T02:26:07;99429.34;;;31.94;44.19
16525;BME280;8375;33.594;-117.718;2022-09-06T02:28:37;99435.38;;;32.10;44.14
16525;BME280;8375;33.594;-117.718;2022-09-06T02:31:12;99437.72;;;32.22;43.91
16525;BME280;8375;33.594;-117.718;2022-09-06T02:33:44;99434.97;;;32.27;43.35
16525;BME280;8375;33.594;-117.718;2022-09-06T02:36:14;99448.22;;;32.13;43.87
16525;BME280;8375;33.594;-117.718;2022-09-06T02:38:43;99453.88;;;31.67;44.59
16525;BME280;8375;33.594;-117.718;2022-09-06T02:41:14;99464.53;;;31.22;45.92
16525;BME280;8375;33.594;-117.718;2022-09-06T02:43:44;99470.22;;;30.99;46.39
16525;BME280;8375;33.594;-117.718;2022-09-06T02:46:14;99471.34;;;30.78;47.07
16525;BME280;8375;33.594;-117.718;2022-09-06T02:48:42;99480.19;;;30.63;47.80
16525;BME280;8375;33.594;-117.718;2022-09-06T02:51:12;99483.13;;;30.40;48.00
16525;BME280;8375;33.594;-117.718;2022-09-06T02:53:40;99491.66;;;30.11;49.34
16525;BME280;8375;33.594;-117.718;2022-09-06T02:56:09;99492.91;;;29.83;50.12
16525;BME280;8375;33.594;-117.718;2022-09-06T02:58:38;99499.56;;;29.75;50.41
16525;BME280;8375;33.594;-117.718;2022-09-06T03:01:07;99502.50;;;29.74;50.41
16525;BME280;8375;33.594;-117.718;2022-09-06T03:03:37;99497.13;;;29.63;50.23
16525;BME280;8375;33.594;-117.718;2022-09-06T03:06:06;99507.25;;;29.56;50.60
16525;BME280;8375;33.594;-117.718;2022-09-06T03:08:34;99518.75;;;29.56;49.75
16525;BME280;8375;33.594;-117.718;2022-09-06T03:11:03;99515.78;;;29.53;49.97
16525;BME280;8375;33.594;-117.718;2022-09-06T03:13:32;99528.03;;;29.38;50.55
16525;BME280;8375;33.594;-117.718;2022-09-06T03:16:01;99533.13;;;29.02;51.99
16525;BME280;8375;33.594;-117.718;2022-09-06T03:18:30;99536.53;;;28.60;53.45
16525;BME280;8375;33.594;-117.718;2022-09-06T03:21:00;99541.25;;;28.25;54.58
16525;BME280;8375;33.594;-117.718;2022-09-06T03:23:29;99541.91;;;28.10;55.15
16525;BME280;8375;33.594;-117.718;2022-09-06T03:25:58;99546.25;;;28.16;55.46
16525;BME280;8375;33.594;-117.718;2022-09-06T03:28:27;99550.78;;;28.16;55.58
16525;BME280;8375;33.594;-117.718;2022-09-06T03:30:55;99554.19;;;28.11;55.32
16525;BME280;8375;33.594;-117.718;2022-09-06T03:33:24;99560.50;;;28.05;55.52
16525;BME280;8375;33.594;-117.718;2022-09-06T03:35:54;99571.72;;;28.07;55.46
16525;BME280;8375;33.594;-117.718;2022-09-06T03:38:25;99575.50;;;28.11;55.58
16525;BME280;8375;33.594;-117.718;2022-09-06T03:40:54;99571.63;;;27.96;56.06
16525;BME280;8375;33.594;-117.718;2022-09-06T03:43:23;99592.91;;;27.91;56.13
16525;BME280;8375;33.594;-117.718;2022-09-06T03:45:53;99598.81;;;27.76;56.86
16525;BME280;8375;33.594;-117.718;2022-09-06T03:48:23;99600.22;;;27.62;57.75
16525;BME280;8375;33.594;-117.718;2022-09-06T03:50:54;99589.91;;;27.65;57.28
16525;BME280;8375;33.594;-117.718;2022-09-06T03:53:25;99603.81;;;27.50;57.77
16525;BME280;8375;33.594;-117.718;2022-09-06T03:55:56;99603.25;;;27.31;58.42
16525;BME280;8375;33.594;-117.718;2022-09-06T03:58:28;99608.19;;;27.05;59.05
16525;BME280;8375;33.594;-117.718;2022-09-06T04:01:06;99609.31;;;27.09;59.04
16525;BME280;8375;33.594;-117.718;2022-09-06T04:03:35;99612.28;;;27.13;58.78
16525;BME280;8375;33.594;-117.718;2022-09-06T04:06:05;99612.06;;;27.15;58.30
16525;BME280;8375;33.594;-117.718;2022-09-06T04:08:36;99616.75;;;27.07;58.99
16525;BME280;8375;33.594;-117.718;2022-09-06T04:11:05;99621.50;;;27.05;59.03
16525;BME280;8375;33.594;-117.718;2022-09-06T04:13:35;99627.88;;;27.04;58.93
16525;BME280;8375;33.594;-117.718;2022-09-06T04:16:04;99631.69;;;27.08;59.03
16525;BME280;8375;33.594;-117.718;2022-09-06T04:18:33;99629.16;;;27.02;59.18
16525;BME280;8375;33.594;-117.718;2022-09-06T04:21:02;99633.81;;;26.94;58.70
16525;BME280;8375;33.594;-117.718;2022-09-06T04:23:31;99627.63;;;26.89;58.90
16525;BME280;8375;33.594;-117.718;2022-09-06T04:26:02;99631.50;;;26.69;59.96
16525;BME280;8375;33.594;-117.718;2022-09-06T04:28:30;99640.72;;;26.49;61.96
16525;BME280;8375;33.594;-117.718;2022-09-06T04:31:01;99652.19;;;26.38;63.69
16525;BME280;8375;33.594;-117.718;2022-09-06T04:33:31;99647.81;;;26.32;64.41
16525;BME280;8375;33.594;-117.718;2022-09-06T04:36:01;99639.50;;;26.69;63.88
16525;BME280;8375;33.594;-117.718;2022-09-06T04:38:34;99649.19;;;27.04;63.78
16525;BME280;8375;33.594;-117.718;2022-09-06T04:41:06;99658.38;;;27.31;63.40
16525;BME280;8375;33.594;-117.718;2022-09-06T04:43:35;99652.97;;;27.43;63.36
16525;BME280;8375;33.594;-117.718;2022-09-06T04:46:04;99654.44;;;27.50;63.10
16525;BME280;8375;33.594;-117.718;2022-09-06T04:48:34;99660.03;;;27.49;63.91
16525;BME280;8375;33.594;-117.718;2022-09-06T04:51:03;99657.09;;;27.50;64.42
16525;BME280;8375;33.594;-117.718;2022-09-06T04:53:31;99664.38;;;27.55;64.42
16525;BME280;8375;33.594;-117.718;2022-09-06T04:56:00;99666.50;;;27.53;64.51
16525;BME280;8375;33.594;-117.718;2022-09-06T04:58:31;99678.44;;;27.50;65.17
16525;BME280;8375;33.594;-117.718;2022-09-06T05:00:59;99664.94;;;27.57;65.20
16525;BME280;8375;33.594;-117.718;2022-09-06T05:03:28;99670.34;;;27.62;65.58
16525;BME280;8375;33.594;-117.718;2022-09-06T05:06:05;99675.84;;;27.56;65.91
16525;BME280;8375;33.594;-117.718;2022-09-06T05:08:36;99679.63;;;27.43;66.98
16525;BME280;8375;33.594;-117.718;2022-09-06T05:11:06;99676.31;;;27.35;66.92
16525;BME280;8375;33.594;-117.718;2022-09-06T05:13:38;99681.66;;;27.35;67.24
16525;BME280;8375;33.594;-117.718;2022-09-06T05:16:08;99679.06;;;27.41;66.94
16525;BME280;8375;33.594;-117.718;2022-09-06T05:18:37;99677.44;;;27.22;67.59
16525;BME280;8375;33.594;-117.718;2022-09-06T05:21:06;99671.91;;;26.66;69.93
16525;BME280;8375;33.594;-117.718;2022-09-06T05:23:34;99672.72;;;26.26;71.87
16525;BME280;8375;33.594;-117.718;2022-09-06T05:26:03;99672.81;;;26.07;73.17
16525;BME280;8375;33.594;-117.718;2022-09-06T05:28:32;99680.16;;;25.88;73.79
16525;BME280;8375;33.594;-117.718;2022-09-06T05:31:12;99674.47;;;25.60;74.93
16525;BME280;8375;33.594;-117.718;2022-09-06T05:33:51;99678.38;;;25.46;75.46
16525;BME280;8375;33.594;-117.718;2022-09-06T05:36:20;99684.00;;;25.38;75.96
16525;BME280;8375;33.594;-117.718;2022-09-06T05:38:49;99673.50;;;25.31;76.20
16525;BME280;8375;33.594;-117.718;2022-09-06T05:41:18;99670.59;;;25.32;76.59
16525;BME280;8375;33.594;-117.718;2022-09-06T05:43:47;99671.38;;;25.21;77.72
16525;BME280;8375;33.594;-117.718;2022-09-06T05:46:17;99668.03;;;25.14;78.03
16525;BME280;8375;33.594;-117.718;2022-09-06T05:48:51;99674.63;;;25.11;78.65
16525;BME280;8375;33.594;-117.718;2022-09-06T05:51:20;99674.25;;;25.08;79.02
16525;BME280;8375;33.594;-117.718;2022-09-06T05:53:49;99675.66;;;25.10;78.88
16525;BME280;8375;33.594;-117.718;2022-09-06T05:56:18;99677.34;;;25.04;79.15
16525;BME280;8375;33.594;-117.718;2022-09-06T05:58:47;99669.19;;;25.06;79.22
16525;BME280;8375;33.594;-117.718;2022-09-06T06:01:20;99677.47;;;25.10;79.03
16525;BME280;8375;33.594;-117.718;2022-09-06T06:03:52;99666.72;;;25.04;79.51
16525;BME280;8375;33.594;-117.718;2022-09-06T06:06:23;99672.63;;;25.07;78.98
16525;BME280;8375;33.594;-117.718;2022-09-06T06:08:52;99672.41;;;25.08;79.31
16525;BME280;8375;33.594;-117.718;2022-09-06T06:11:20;99678.19;;;25.05;79.45
16525;BME280;8375;33.594;-117.718;2022-09-06T06:13:49;99680.78;;;24.93;80.49
16525;BME280;8375;33.594;-117.718;2022-09-06T06:16:21;99670.75;;;24.95;79.96
16525;BME280;8375;33.594;-117.718;2022-09-06T06:18:50;99673.41;;;24.95;79.86
16525;BME280;8375;33.594;-117.718;2022-09-06T06:21:20;99677.09;;;24.94;80.07
16525;BME280;8375;33.594;-117.718;2022-09-06T06:23:51;99678.56;;;24.90;80.94
16525;BME280;8375;33.594;-117.718;2022-09-06T06:26:21;99677.28;;;24.81;81.07
16525;BME280;8375;33.594;-117.718;2022-09-06T06:28:50;99677.19;;;24.87;81.21
16525;BME280;8375;33.594;-117.718;2022-09-06T06:31:20;99679.59;;;25.19;80.02
16525;BME280;8375;33.594;-117.718;2022-09-06T06:33:49;99679.31;;;25.52;77.60
16525;BME280;8375;33.594;-117.718;2022-09-06T06:36:19;99674.03;;;25.75;76.37
16525;BME280;8375;33.594;-117.718;2022-09-06T06:38:50;99675.16;;;25.91;75.76
16525;BME280;8375;33.594;-117.718;2022-09-06T06:41:20;99676.31;;;26.07;74.75
16525;BME280;8375;33.594;-117.718;2022-09-06T06:43:51;99681.03;;;26.17;74.58
16525;BME280;8375;33.594;-117.718;2022-09-06T06:46:22;99678.84;;;26.26;73.56
16525;BME280;8375;33.594;-117.718;2022-09-06T06:48:53;99682.41;;;26.32;73.23
16525;BME280;8375;33.594;-117.718;2022-09-06T06:51:23;99687.81;;;26.37;73.18
16525;BME280;8375;33.594;-117.718;2022-09-06T06:53:52;99681.25;;;26.40;73.04
16525;BME280;8375;33.594;-117.718;2022-09-06T06:56:23;99686.88;;;26.43;72.24
16525;BME280;8375;33.594;-117.718;2022-09-06T06:58:53;99684.47;;;26.42;72.44
16525;BME280;8375;33.594;-117.718;2022-09-06T07:01:25;99691.63;;;26.41;72.77
16525;BME280;8375;33.594;-117.718;2022-09-06T07:03:54;99680.53;;;26.44;72.32
16525;BME280;8375;33.594;-117.718;2022-09-06T07:06:24;99684.22;;;26.43;72.73
16525;BME280;8375;33.594;-117.718;2022-09-06T07:08:55;99682.59;;;26.42;71.96
16525;BME280;8375;33.594;-117.718;2022-09-06T07:11:25;99677.53;;;26.41;72.62
16525;BME280;8375;33.594;-117.718;2022-09-06T07:13:53;99688.19;;;26.41;72.28
16525;BME280;8375;33.594;-117.718;2022-09-06T07:16:23;99684.38;;;26.36;72.67
16525;BME280;8375;33.594;-117.718;2022-09-06T07:18:54;99680.22;;;26.29;73.00
16525;BME280;8375;33.594;-117.718;2022-09-06T07:21:23;99682.66;;;26.30;72.70
16525;BME280;8375;33.594;-117.718;2022-09-06T07:23:53;99686.69;;;26.33;71.97
16525;BME280;8375;33.594;-117.718;2022-09-06T07:26:24;99680.56;;;26.32;72.43
16525;BME280;8375;33.594;-117.718;2022-09-06T07:28:53;99678.13;;;26.31;72.87
16525;BME280;8375;33.594;-117.718;2022-09-06T07:31:24;99677.56;;;26.29;73.38
16525;BME280;8375;33.594;-117.718;2022-09-06T07:33:52;99684.59;;;26.11;72.96
16525;BME280;8375;33.594;-117.718;2022-09-06T07:36:21;99680.59;;;25.85;74.38
16525;BME280;8375;33.594;-117.718;2022-09-06T07:38:50;99676.09;;;25.61;75.50
16525;BME280;8375;33.594;-117.718;2022-09-06T07:41:19;99679.84;;;25.42;76.71
16525;BME280;8375;33.594;-117.718;2022-09-06T07:43:52;99670.72;;;25.26;77.88
16525;BME280;8375;33.594;-117.718;2022-09-06T07:46:23;99676.44;;;25.11;78.48
16525;BME280;8375;33.594;-117.718;2022-09-06T07:48:51;99676.09;;;25.07;79.33
16525;BME280;8375;33.594;-117.718;2022-09-06T07:51:21;99668.69;;;24.97;79.04
16525;BME280;8375;33.594;-117.718;2022-09-06T07:53:50;99663.09;;;24.87;79.93
16525;BME280;8375;33.594;-117.718;2022-09-06T07:56:21;99668.72;;;24.79;80.92
16525;BME280;8375;33.594;-117.718;2022-09-06T07:58:50;99665.94;;;24.73;81.63
16525;BME280;8375;33.594;-117.718;2022-09-06T08:01:28;99654.94;;;24.70;81.59
16525;BME280;8375;33.594;-117.718;2022-09-06T08:03:58;99664.38;;;24.66;81.61
16525;BME280;8375;33.594;-117.718;2022-09-06T08:06:28;99660.78;;;24.60;82.10
16525;BME280;8375;33.594;-117.718;2022-09-06T08:08:58;99661.66;;;24.54;82.30
16525;BME280;8375;33.594;-117.718;2022-09-06T08:11:29;99665.94;;;24.55;82.45
16525;BME280;8375;33.594;-117.718;2022-09-06T08:13:58;99658.44;;;24.52;82.73
16525;BME280;8375;33.594;-117.718;2022-09-06T08:16:30;99664.63;;;24.45;83.22
16525;BME280;8375;33.594;-117.718;2022-09-06T08:19:00;99667.53;;;24.44;82.88
16525;BME280;8375;33.594;-117.718;2022-09-06T08:21:30;99671.22;;;24.43;82.94
16525;BME280;8375;33.594;-117.718;2022-09-06T08:24:00;99660.00;;;24.41;83.24
16525;BME280;8375;33.594;-117.718;2022-09-06T08:26:31;99671.66;;;24.40;83.18
16525;BME280;8375;33.594;-117.718;2022-09-06T08:29:01;99661.69;;;24.35;83.09
16525;BME280;8375;33.594;-117.718;2022-09-06T08:31:34;99661.94;;;24.34;83.58
16525;BME280;8375;33.594;-117.718;2022-09-06T08:36:32;99666.84;;;24.30;83.71
16525;BME280;8375;33.594;-117.718;2022-09-06T08:39:02;99664.44;;;24.28;84.10
16525;BME280;8375;33.594;-117.718;2022-09-06T08:41:41;99664.50;;;24.22;84.48
16525;BME280;8375;33.594;-117.718;2022-09-06T08:44:16;99665.97;;;24.17;84.64
16525;BME280;8375;33.594;-117.718;2022-09-06T08:46:54;99662.72;;;24.15;85.51
16525;BME280;8375;33.594;-117.718;2022-09-06T08:49:24;99673.63;;;24.07;85.95
16525;BME280;8375;33.594;-117.718;2022-09-06T08:55:06;99670.25;;;24.00;85.96
16525;BME280;8375;33.594;-117.718;2022-09-06T08:57:49;99678.19;;;24.00;86.09
16525;BME280;8375;33.594;-117.718;2022-09-06T09:00:21;99677.41;;;23.99;86.15
16525;BME280;8375;33.594;-117.718;2022-09-06T09:03:01;99678.00;;;23.95;86.28
16525;BME280;8375;33.594;-117.718;2022-09-06T09:05:33;99675.34;;;23.95;86.43
16525;BME280;8375;33.594;-117.718;2022-09-06T09:08:07;99682.72;;;23.93;86.52
16525;BME280;8375;33.594;-117.718;2022-09-06T09:10:41;99685.75;;;23.96;85.77
16525;BME280;8375;33.594;-117.718;2022-09-06T09:13:19;99678.59;;;23.97;85.88
16525;BME280;8375;33.594;-117.718;2022-09-06T09:15:52;99684.78;;;23.91;86.07
16525;BME280;8375;33.594;-117.718;2022-09-06T09:18:24;99685.44;;;23.86;86.38
16525;BME280;8375;33.594;-117.718;2022-09-06T09:20:54;99690.13;;;23.84;86.31
16525;BME280;8375;33.594;-117.718;2022-09-06T09:23:23;99690.56;;;23.81;86.67
16525;BME280;8375;33.594;-117.718;2022-09-06T09:25:54;99691.44;;;23.74;86.96
16525;BME280;8375;33.594;-117.718;2022-09-06T09:28:24;99682.09;;;23.72;86.41
16525;BME280;8375;33.594;-117.718;2022-09-06T09:30:54;99673.00;;;23.86;86.76
16525;BME280;8375;33.594;-117.718;2022-09-06T09:33:27;99681.28;;;24.15;84.39
16525;BME280;8375;33.594;-117.718;2022-09-06T09:35:58;99677.25;;;24.31;82.31
16525;BME280;8375;33.594;-117.718;2022-09-06T09:38:29;99674.22;;;24.28;82.05
16525;BME280;8375;33.594;-117.718;2022-09-06T09:41:01;99669.94;;;24.45;80.14
16525;BME280;8375;33.594;-117.718;2022-09-06T09:43:33;99676.09;;;24.58;80.21
16525;BME280;8375;33.594;-117.718;2022-09-06T09:46:14;99665.81;;;24.50;78.75
16525;BME280;8375;33.594;-117.718;2022-09-06T09:48:58;99670.25;;;24.37;80.38
16525;BME280;8375;33.594;-117.718;2022-09-06T09:51:29;99672.16;;;24.30;81.66
16525;BME280;8375;33.594;-117.718;2022-09-06T09:53:59;99669.94;;;24.08;81.73
16525;BME280;8375;33.594;-117.718;2022-09-06T09:56:44;99664.16;;;23.93;82.65
16525;BME280;8375;33.594;-117.718;2022-09-06T09:59:22;99664.44;;;23.84;82.70
16525;BME280;8375;33.594;-117.718;2022-09-06T10:01:54;99663.75;;;23.70;83.46
16525;BME280;8375;33.594;-117.718;2022-09-06T10:04:29;99668.09;;;23.65;84.29
16525;BME280;8375;33.594;-117.718;2022-09-06T10:07:09;99663.06;;;23.56;85.38
16525;BME280;8375;33.594;-117.718;2022-09-06T10:09:40;99664.31;;;23.54;85.83
16525;BME280;8375;33.594;-117.718;2022-09-06T10:12:16;99661.28;;;23.50;86.49
16525;BME280;8375;33.594;-117.718;2022-09-06T10:14:46;99661.16;;;23.38;86.57
16525;BME280;8375;33.594;-117.718;2022-09-06T10:17:20;99658.75;;;23.37;86.52
16525;BME280;8375;33.594;-117.718;2022-09-06T10:19:51;99657.97;;;23.29;87.23
16525;BME280;8375;33.594;-117.718;2022-09-06T10:22:28;99655.53;;;23.28;87.05
16525;BME280;8375;33.594;-117.718;2022-09-06T10:25:20;99656.78;;;23.25;87.47
16525;BME280;8375;33.594;-117.718;2022-09-06T10:31:09;99643.75;;;23.24;87.29
16525;BME280;8375;33.594;-117.718;2022-09-06T10:33:47;99639.06;;;23.26;87.43
16525;BME280;8375;33.594;-117.718;2022-09-06T10:36:28;99639.47;;;23.23;87.58
16525;BME280;8375;33.594;-117.718;2022-09-06T10:39:01;99633.38;;;23.22;87.42
16525;BME280;8375;33.594;-117.718;2022-09-06T10:41:43;99638.69;;;23.15;87.58
16525;BME280;8375;33.594;-117.718;2022-09-06T10:44:26;99635.25;;;23.15;87.71
16525;BME280;8375;33.594;-117.718;2022-09-06T10:47:04;99632.81;;;23.13;87.84
16525;BME280;8375;33.594;-117.718;2022-09-06T10:49:37;99634.84;;;23.11;87.79
16525;BME280;8375;33.594;-117.718;2022-09-06T10:52:12;99632.22;;;23.11;88.20
16525;BME280;8375;33.594;-117.718;2022-09-06T10:54:41;99633.47;;;23.09;87.65
16525;BME280;8375;33.594;-117.718;2022-09-06T10:57:17;99637.13;;;23.08;87.61
16525;BME280;8375;33.594;-117.718;2022-09-06T10:59:50;99640.22;;;23.05;87.85
16525;BME280;8375;33.594;-117.718;2022-09-06T11:02:32;99628.03;;;22.97;88.31
16525;BME280;8375;33.594;-117.718;2022-09-06T11:05:07;99635.53;;;23.00;88.16
16525;BME280;8375;33.594;-117.718;2022-09-06T11:07:40;99630.91;;;22.95;88.83
16525;BME280;8375;33.594;-117.718;2022-09-06T11:10:15;99633.56;;;22.95;88.48
16525;BME280;8375;33.594;-117.718;2022-09-06T11:12:50;99634.59;;;22.94;88.45
16525;BME280;8375;33.594;-117.718;2022-09-06T11:15:22;99643.97;;;22.90;88.68
16525;BME280;8375;33.594;-117.718;2022-09-06T11:17:57;99646.00;;;22.88;89.05
16525;BME280;8375;33.594;-117.718;2022-09-06T11:20:33;99648.25;;;22.84;88.86
16525;BME280;8375;33.594;-117.718;2022-09-06T11:23:31;99640.56;;;22.83;88.63
16525;BME280;8375;33.594;-117.718;2022-09-06T11:26:28;99643.63;;;22.80;88.60
16525;BME280;8375;33.594;-117.718;2022-09-06T11:29:02;99640.56;;;22.76;89.01
16525;BME280;8375;33.594;-117.718;2022-09-06T11:31:32;99639.97;;;22.74;89.15
16525;BME280;8375;33.594;-117.718;2022-09-06T11:34:07;99630.84;;;22.70;89.43
16525;BME280;8375;33.594;-117.718;2022-09-06T11:36:39;99641.06;;;22.66;89.35
16525;BME280;8375;33.594;-117.718;2022-09-06T11:39:29;99633.53;;;22.63;89.44
16525;BME280;8375;33.594;-117.718;2022-09-06T11:41:59;99641.47;;;22.63;89.53
16525;BME280;8375;33.594;-117.718;2022-09-06T11:47:39;99641.06;;;22.60;89.55
16525;BME280;8375;33.594;-117.718;2022-09-06T11:50:25;99639.66;;;22.57;89.89
16525;BME280;8375;33.594;-117.718;2022-09-06T11:53:15;99639.88;;;22.55;90.43
16525;BME280;8375;33.594;-117.718;2022-09-06T11:55:48;99644.13;;;22.56;90.27
16525;BME280;8375;33.594;-117.718;2022-09-06T11:58:24;99655.34;;;22.52;90.23
16525;BME280;8375;33.594;-117.718;2022-09-06T12:04:08;99676.31;;;22.47;91.97
16525;BME280;8375;33.594;-117.718;2022-09-06T12:06:40;99674.25;;;22.42;91.68
16525;BME280;8375;33.594;-117.718;2022-09-06T12:09:29;99678.16;;;22.39;91.19
16525;BME280;8375;33.594;-117.718;2022-09-06T12:12:00;99674.50;;;22.34;91.14
16525;BME280;8375;33.594;-117.718;2022-09-06T12:14:34;99675.09;;;22.36;90.66
16525;BME280;8375;33.594;-117.718;2022-09-06T12:17:25;99668.19;;;22.35;91.13
16525;BME280;8375;33.594;-117.718;2022-09-06T12:20:00;99668.00;;;22.36;91.09
16525;BME280;8375;33.594;-117.718;2022-09-06T12:23:02;99669.81;;;22.36;90.82
16525;BME280;8375;33.594;-117.718;2022-09-06T12:25:53;99677.56;;;22.31;91.18
16525;BME280;8375;33.594;-117.718;2022-09-06T12:28:29;99674.72;;;22.32;93.74
16525;BME280;8375;33.594;-117.718;2022-09-06T12:31:00;99685.28;;;22.32;94.46
16525;BME280;8375;33.594;-117.718;2022-09-06T12:33:31;99681.22;;;22.30;93.43
16525;BME280;8375;33.594;-117.718;2022-09-06T12:36:13;99691.41;;;22.26;93.14
16525;BME280;8375;33.594;-117.718;2022-09-06T12:38:54;99696.88;;;22.24;92.68
16525;BME280;8375;33.594;-117.718;2022-09-06T12:41:24;99700.56;;;22.23;92.59
16525;BME280;8375;33.594;-117.718;2022-09-06T12:43:55;99707.69;;;22.23;92.93
16525;BME280;8375;33.594;-117.718;2022-09-06T12:46:26;99705.47;;;22.20;92.58
16525;BME280;8375;33.594;-117.718;2022-09-06T12:49:01;99699.16;;;22.21;92.58
16525;BME280;8375;33.594;-117.718;2022-09-06T12:51:31;99703.00;;;22.18;92.55
16525;BME280;8375;33.594;-117.718;2022-09-06T12:54:02;99707.91;;;22.15;92.92
16525;BME280;8375;33.594;-117.718;2022-09-06T12:56:32;99712.19;;;22.16;92.92
16525;BME280;8375;33.594;-117.718;2022-09-06T12:59:14;99709.94;;;22.12;92.91
16525;BME280;8375;33.594;-117.718;2022-09-06T13:01:49;99713.81;;;22.03;93.53
16525;BME280;8375;33.594;-117.718;2022-09-06T13:04:26;99719.09;;;22.03;93.62
16525;BME280;8375;33.594;-117.718;2022-09-06T13:06:59;99723.38;;;22.04;93.33
16525;BME280;8375;33.594;-117.718;2022-09-06T13:09:28;99730.69;;;22.02;93.52
16525;BME280;8375;33.594;-117.718;2022-09-06T13:12:03;99725.59;;;22.01;93.68
16525;BME280;8375;33.594;-117.718;2022-09-06T13:14:34;99721.56;;;21.98;93.00
16525;BME280;8375;33.594;-117.718;2022-09-06T13:17:03;99738.00;;;22.00;92.95
16525;BME280;8375;33.594;-117.718;2022-09-06T13:19:34;99736.19;;;21.94;94.70
16525;BME280;8375;33.594;-117.718;2022-09-06T13:22:04;99738.59;;;21.95;95.14
16525;BME280;8375;33.594;-117.718;2022-09-06T13:24:43;99741.06;;;21.83;95.89
16525;BME280;8375;33.594;-117.718;2022-09-06T13:27:33;99746.16;;;21.78;95.19